Time;durP1;ratioP1;P1;durP2;ratioP2;P2;SDS_P1;SDS_P2;PMS_P1;PMS_P2;Temp;Humidity;BMP_temperature;BMP_pressure;BME280_temperature;BME280_humidity;BME280_pressure;Samples;Min_cycle;Max_cycle;Signal;HPM_P1;HPM_P2
2023/06/01 00:01:33;;;;;;;7.15;3.97;;;15.50;74.10;;;;;;5002077;28;20508;-80
2023/06/01 00:03:59;;;;;;;9.23;4.78;;;15.50;72.90;;;;;;5019245;28;20067;-79
2023/06/01 00:06:28;;;;;;;8.43;3.88;;;15.40;73.40;;;;;;5019353;28;20022;-79
2023/06/01 00:08:55;;;;;;;10.68;4.28;;;15.40;74.40;;;;;;5004378;28;20037;-80
2023/06/01 00:11:21;;;;;;;9.95;4.38;;;15.40;75.20;;;;;;5003388;28;20120;-78
2023/06/01 00:13:48;;;;;;;11.57;5.55;;;15.30;74.40;;;;;;5005449;28;20041;-78
2023/06/01 00:16:13;;;;;;;6.78;4.22;;;15.30;74.20;;;;;;4988928;28;20034;-79
2023/06/01 00:18:40;;;;;;;8.93;4.68;;;15.20;75.00;;;;;;5002667;28;20548;-78
2023/06/01 00:21:05;;;;;;;10.63;4.35;;;15.10;78.30;;;;;;5021603;28;20137;-79
2023/06/01 00:23:31;;;;;;;11.32;4.60;;;15.00;78.30;;;;;;5005003;28;20474;-79
2023/06/01 00:25:57;;;;;;;11.18;4.50;;;14.90;78.00;;;;;;5020321;28;20049;-80
2023/06/01 00:28:26;;;;;;;12.18;5.07;;;14.90;77.10;;;;;;5001844;28;20124;-79
2023/06/01 00:30:52;;;;;;;9.65;5.80;;;14.70;78.90;;;;;;4999389;28;20030;-80
2023/06/01 00:33:21;;;;;;;11.57;5.10;;;14.60;80.00;;;;;;4996372;28;20037;-80
2023/06/01 00:35:46;;;;;;;14.05;6.32;;;14.60;82.80;;;;;;5002071;28;20041;-80
2023/06/01 00:38:12;;;;;;;11.68;6.35;;;14.60;79.80;;;;;;4987278;28;20513;-79
2023/06/01 00:40:38;;;;;;;8.52;5.82;;;14.40;80.10;;;;;;4988594;28;20507;-80
2023/06/01 00:43:04;;;;;;;9.68;6.32;;;14.50;81.70;;;;;;5021540;28;20052;-79
2023/06/01 00:45:30;;;;;;;14.18;6.47;;;14.40;81.20;;;;;;5024671;28;20077;-79
2023/06/01 00:47:55;;;;;;;12.55;6.10;;;14.40;81.20;;;;;;5023704;28;20046;-79
2023/06/01 00:50:21;;;;;;;11.68;6.20;;;14.40;82.30;;;;;;5024103;28;20583;-79
2023/06/01 00:52:48;;;;;;;11.60;6.57;;;14.40;82.30;;;;;;5007570;28;20045;-79
2023/06/01 00:55:13;;;;;;;13.85;6.38;;;14.30;81.00;;;;;;5023662;28;20417;-79
2023/06/01 00:57:39;;;;;;;9.90;7.10;;;14.30;81.30;;;;;;5021162;28;20034;-79
2023/06/01 01:00:09;;;;;;;13.75;7.20;;;14.20;83.80;;;;;;5003519;28;20493;-79
2023/06/01 01:02:38;;;;;;;10.40;7.55;;;14.20;84.80;;;;;;5021625;28;20562;-79
2023/06/01 01:05:10;;;;;;;13.82;6.82;;;14.10;85.10;;;;;;5020751;28;20494;-79
2023/06/01 01:07:47;;;;;;;13.70;7.43;;;14.10;87.80;;;;;;5007052;28;20033;-79
2023/06/01 01:10:31;;;;;;;10.82;6.53;;;14.10;88.30;;;;;;5004403;28;20799;-79
2023/06/01 01:12:59;;;;;;;10.68;7.03;;;14.20;84.30;;;;;;5022360;28;20033;-79
2023/06/01 01:15:30;;;;;;;13.50;7.07;;;14.00;86.50;;;;;;5024603;28;20083;-79
2023/06/01 01:18:03;;;;;;;19.55;8.40;;;13.90;88.80;;;;;;5007761;28;20033;-79
2023/06/01 01:20:30;;;;;;;11.60;8.18;;;13.80;89.10;;;;;;5022476;28;20041;-79
2023/06/01 01:23:34;;;;;;;16.30;9.13;;;13.80;91.30;;;;;;5005527;28;20512;-79
2023/06/01 01:26:21;;;;;;;15.50;7.57;;;13.70;87.30;;;;;;5004776;28;20037;-80
2023/06/01 01:28:58;;;;;;;12.02;8.25;;;13.60;89.10;;;;;;5002586;28;20033;-79
2023/06/01 01:31:24;;;;;;;14.13;8.95;;;13.60;89.40;;;;;;5006211;28;20168;-79
2023/06/01 01:33:51;;;;;;;13.65;7.57;;;13.50;90.80;;;;;;5022960;28;20025;-79
2023/06/01 01:36:17;;;;;;;14.48;8.88;;;13.40;90.80;;;;;;5004934;28;20029;-79
2023/06/01 01:38:42;;;;;;;21.70;8.77;;;13.40;91.90;;;;;;5006300;28;20044;-79
2023/06/01 01:41:08;;;;;;;12.75;7.97;;;13.30;92.30;;;;;;4991257;28;20044;-79
2023/06/01 01:43:34;;;;;;;10.25;7.88;;;13.30;92.30;;;;;;5008019;28;20033;-79
2023/06/01 01:46:27;;;;;;;13.25;8.05;;;13.20;93.60;;;;;;4989793;28;20552;-79
2023/06/01 01:48:59;;;;;;;12.95;8.05;;;13.20;95.10;;;;;;5006900;28;20048;-79
2023/06/01 01:51:36;;;;;;;13.30;8.50;;;13.10;96.70;;;;;;5024282;28;20083;-79
2023/06/01 01:54:02;;;;;;;11.10;8.15;;;13.10;96.30;;;;;;5001490;28;20088;-78
2023/06/01 01:56:28;;;;;;;13.98;8.20;;;13.10;94.40;;;;;;5007786;28;20037;-80
2023/06/01 01:58:54;;;;;;;15.90;8.60;;;12.90;96.10;;;;;;5007962;28;20110;-80
2023/06/01 02:01:19;;;;;;;15.38;9.30;;;12.90;97.10;;;;;;5004972;28;20096;-80
2023/06/01 02:03:45;;;;;;;14.50;9.32;;;12.90;96.80;;;;;;5020168;28;20033;-80
2023/06/01 02:06:10;;;;;;;16.15;8.82;;;12.80;96.70;;;;;;5007021;28;20101;-80
2023/06/01 02:08:36;;;;;;;12.68;9.50;;;12.80;96.40;;;;;;5006800;28;20048;-80
2023/06/01 02:11:02;;;;;;;15.07;9.13;;;12.80;95.90;;;;;;5007221;28;20028;-81
2023/06/01 02:13:27;;;;;;;21.52;9.93;;;12.60;97.40;;;;;;5016911;28;20437;-80
2023/06/01 02:15:53;;;;;;;17.17;10.85;;;12.60;99.90;;;;;;4989973;28;20382;-81
2023/06/01 02:18:19;;;;;;;19.55;9.85;;;12.60;97.70;;;;;;5005803;28;20030;-81
2023/06/01 02:20:45;;;;;;;13.43;8.93;;;12.60;98.90;;;;;;5001368;28;20092;-81
2023/06/01 02:23:11;;;;;;;16.38;10.05;;;12.60;99.90;;;;;;5000307;28;20103;-80
2023/06/01 02:25:36;;;;;;;15.38;10.05;;;12.50;97.90;;;;;;4991451;28;20033;-78
2023/06/01 02:28:02;;;;;;;18.98;9.82;;;12.40;98.70;;;;;;4989669;28;20479;-79
2023/06/01 02:30:27;;;;;;;19.98;10.30;;;12.30;99.90;;;;;;5021618;28;20108;-80
2023/06/01 02:32:53;;;;;;;15.85;10.68;;;12.30;99.00;;;;;;4990348;28;20029;-81
2023/06/01 02:35:19;;;;;;;17.60;10.73;;;12.20;98.90;;;;;;4990256;28;20045;-80
2023/06/01 02:37:45;;;;;;;15.65;10.57;;;12.30;99.90;;;;;;5023049;28;20033;-79
2023/06/01 02:40:11;;;;;;;18.75;10.45;;;12.20;99.90;;;;;;5003729;28;20038;-81
2023/06/01 02:42:38;;;;;;;20.08;11.88;;;12.30;99.70;;;;;;5005025;28;20383;-80
2023/06/01 02:45:05;;;;;;;22.75;11.25;;;12.20;99.90;;;;;;5003852;28;20038;-81
2023/06/01 02:47:31;;;;;;;23.42;11.73;;;12.10;99.90;;;;;;5020623;28;20041;-81
2023/06/01 02:49:57;;;;;;;17.60;10.85;;;12.10;99.40;;;;;;5021428;28;20060;-81
2023/06/01 02:52:22;;;;;;;18.75;11.52;;;12.00;99.90;;;;;;5006327;28;20045;-81
2023/06/01 02:54:48;;;;;;;24.02;11.65;;;12.00;99.90;;;;;;5022606;28;20040;-81
2023/06/01 02:57:14;;;;;;;25.60;13.35;;;11.90;99.30;;;;;;5006906;28;20559;-81
2023/06/01 02:59:39;;;;;;;23.77;14.15;;;11.80;99.90;;;;;;5003242;28;20021;-81
2023/06/01 03:02:05;;;;;;;23.05;12.77;;;11.80;99.90;;;;;;4988415;28;20429;-81
2023/06/01 03:04:32;;;;;;;23.45;12.48;;;11.70;99.90;;;;;;4988441;28;20034;-81
2023/06/01 03:06:58;;;;;;;24.88;13.43;;;11.90;99.90;;;;;;5020708;28;20487;-81
2023/06/01 03:09:24;;;;;;;22.25;13.32;;;11.90;99.90;;;;;;5004343;28;20098;-81
2023/06/01 03:11:50;;;;;;;23.88;13.65;;;11.90;99.90;;;;;;5004373;28;20729;-81
2023/06/01 03:14:15;;;;;;;29.88;15.05;;;11.90;99.90;;;;;;4990018;28;20108;-80
2023/06/01 03:16:41;;;;;;;25.55;14.00;;;11.80;99.90;;;;;;4987593;28;20034;-81
2023/06/01 03:19:07;;;;;;;25.25;15.15;;;11.80;99.90;;;;;;5022758;28;20025;-81
2023/06/01 03:21:32;;;;;;;21.27;13.60;;;11.80;99.90;;;;;;5005013;28;20036;-81
2023/06/01 03:23:58;;;;;;;27.02;15.27;;;11.80;99.90;;;;;;5019499;28;20078;-80
2023/06/01 03:26:25;;;;;;;25.40;15.10;;;11.80;99.90;;;;;;4989977;28;20042;-80
2023/06/01 03:28:50;;;;;;;26.40;16.92;;;11.80;99.90;;;;;;4989986;28;20401;-80
2023/06/01 03:31:16;;;;;;;24.90;14.85;;;11.90;99.90;;;;;;4990032;28;20040;-80
2023/06/01 03:33:42;;;;;;;24.08;14.63;;;12.00;99.90;;;;;;5018561;28;20044;-80
2023/06/01 03:36:07;;;;;;;26.63;15.50;;;12.10;99.90;;;;;;4983342;28;20041;-79
2023/06/01 03:38:36;;;;;;;24.95;13.98;;;12.00;99.90;;;;;;4987799;28;20041;-80
2023/06/01 03:41:02;;;;;;;26.70;15.13;;;12.00;99.90;;;;;;4989736;28;20037;-80
2023/06/01 03:43:27;;;;;;;21.80;13.98;;;12.00;99.90;;;;;;4986219;28;20046;-80
2023/06/01 03:45:53;;;;;;;26.13;14.50;;;12.00;99.90;;;;;;5020725;28;20096;-80
2023/06/01 03:48:18;;;;;;;24.98;14.70;;;12.00;99.90;;;;;;4988343;28;20048;-80
2023/06/01 03:50:45;;;;;;;24.98;15.27;;;12.00;99.90;;;;;;4989679;28;20036;-80
2023/06/01 03:53:10;;;;;;;24.40;14.95;;;11.90;99.90;;;;;;5004190;28;20072;-80
2023/06/01 03:55:36;;;;;;;24.15;14.63;;;12.00;99.90;;;;;;5002153;28;20033;-80
2023/06/01 03:58:02;;;;;;;26.08;15.73;;;12.00;99.90;;;;;;4985483;28;20033;-80
2023/06/01 04:00:28;;;;;;;25.00;16.95;;;12.10;99.90;;;;;;5004225;28;20041;-80
2023/06/01 04:02:55;;;;;;;27.33;14.40;;;12.10;99.90;;;;;;4987006;28;20029;-79
2023/06/01 04:05:21;;;;;;;26.45;14.85;;;12.00;99.90;;;;;;5004969;28;20520;-80
2023/06/01 04:07:48;;;;;;;25.38;16.15;;;12.00;99.90;;;;;;5002464;28;20033;-80
2023/06/01 04:10:16;;;;;;;23.65;13.90;;;12.00;99.90;;;;;;4989715;28;20037;-82
2023/06/01 04:12:45;;;;;;;19.08;13.65;;;12.00;99.90;;;;;;4986597;28;20029;-82
2023/06/01 04:15:11;;;;;;;18.95;12.95;;;12.10;99.90;;;;;;4987117;28;20069;-81
2023/06/01 04:17:37;;;;;;;23.13;14.65;;;12.10;99.90;;;;;;5023160;28;20056;-79
2023/06/01 04:20:07;;;;;;;28.33;14.68;;;12.10;99.90;;;;;;5009894;28;20107;-81
2023/06/01 04:22:36;;;;;;;20.95;15.13;;;12.10;99.90;;;;;;4988756;28;20021;-80
2023/06/01 04:25:04;;;;;;;17.83;13.80;;;12.10;99.90;;;;;;4993516;28;20112;-80
2023/06/01 04:27:30;;;;;;;24.25;14.57;;;12.10;99.90;;;;;;5025336;28;20033;-80
2023/06/01 04:29:58;;;;;;;21.70;13.32;;;12.10;99.90;;;;;;4991067;28;20043;-80
2023/06/01 04:32:24;;;;;;;20.77;14.85;;;12.10;99.90;;;;;;4994276;28;20087;-80
2023/06/01 04:34:50;;;;;;;23.38;14.50;;;12.10;99.90;;;;;;4991633;28;20120;-80
2023/06/01 04:37:19;;;;;;;22.55;14.70;;;12.10;99.90;;;;;;5006711;28;20113;-80
2023/06/01 04:39:48;;;;;;;23.13;14.18;;;12.10;99.90;;;;;;5008315;28;20049;-80
2023/06/01 04:42:16;;;;;;;20.05;12.85;;;12.10;99.90;;;;;;5009470;28;20037;-80
2023/06/01 04:44:43;;;;;;;18.95;13.00;;;12.20;99.90;;;;;;5008357;28;20467;-79
2023/06/01 04:47:09;;;;;;;25.35;13.45;;;12.20;99.90;;;;;;4991460;28;20033;-80
2023/06/01 04:49:41;;;;;;;20.25;13.15;;;12.20;99.90;;;;;;5025547;28;20044;-81
2023/06/01 04:52:07;;;;;;;18.73;13.07;;;12.20;99.90;;;;;;5003634;28;20029;-80
2023/06/01 04:54:33;;;;;;;21.55;15.60;;;12.20;99.90;;;;;;5021282;28;20111;-80
2023/06/01 04:56:58;;;;;;;25.33;15.20;;;12.20;99.90;;;;;;5019868;28;20550;-80
2023/06/01 04:59:24;;;;;;;19.75;14.80;;;12.20;99.90;;;;;;5008171;28;20083;-80
2023/06/01 05:01:49;;;;;;;19.35;13.38;;;12.10;99.90;;;;;;5004874;28;20317;-80
2023/06/01 05:04:15;;;;;;;18.80;13.95;;;12.30;99.90;;;;;;5024358;28;20037;-81
2023/06/01 05:06:41;;;;;;;20.55;13.73;;;12.20;99.90;;;;;;5004253;28;20109;-80
2023/06/01 05:09:06;;;;;;;19.13;14.25;;;12.20;99.90;;;;;;5009000;28;20123;-80
2023/06/01 05:11:32;;;;;;;25.27;13.35;;;12.20;99.90;;;;;;5001995;28;20061;-80
2023/06/01 05:14:01;;;;;;;25.80;15.45;;;12.30;99.90;;;;;;5008127;28;20107;-80
2023/06/01 05:16:27;;;;;;;28.80;15.05;;;12.40;99.90;;;;;;4992013;28;20500;-81
2023/06/01 05:18:52;;;;;;;22.38;13.60;;;12.30;99.90;;;;;;4990310;28;20030;-80
2023/06/01 05:21:18;;;;;;;20.67;13.73;;;12.40;99.90;;;;;;5004510;28;20037;-79
2023/06/01 05:23:44;;;;;;;30.08;14.00;;;12.50;99.90;;;;;;5008798;28;20029;-80
2023/06/01 05:26:10;;;;;;;21.17;14.82;;;12.50;99.90;;;;;;5023499;28;20481;-80
2023/06/01 05:28:35;;;;;;;20.55;13.68;;;12.50;99.90;;;;;;5023819;28;20112;-79
2023/06/01 05:31:01;;;;;;;19.08;13.43;;;12.50;99.90;;;;;;5003774;28;20026;-80
2023/06/01 05:33:27;;;;;;;22.90;13.20;;;12.70;99.90;;;;;;4990392;28;20064;-80
2023/06/01 05:35:52;;;;;;;20.10;13.60;;;12.60;99.90;;;;;;5006528;28;20061;-80
2023/06/01 05:38:18;;;;;;;20.63;14.90;;;12.60;99.90;;;;;;5024888;28;20669;-79
2023/06/01 05:40:44;;;;;;;24.98;13.63;;;12.70;99.90;;;;;;4991748;28;20076;-79
2023/06/01 05:43:10;;;;;;;19.45;14.07;;;12.80;99.90;;;;;;4989852;28;20485;-80
2023/06/01 05:45:36;;;;;;;24.35;13.40;;;12.70;99.90;;;;;;5004467;28;20079;-80
2023/06/01 05:48:02;;;;;;;20.83;13.70;;;12.80;99.90;;;;;;4989792;28;20037;-81
2023/06/01 05:50:27;;;;;;;20.50;13.98;;;12.80;99.90;;;;;;4985676;28;20034;-81
2023/06/01 05:52:53;;;;;;;61.42;14.50;;;12.90;99.90;;;;;;4987266;28;20088;-80
2023/06/01 05:55:19;;;;;;;21.95;13.57;;;12.90;99.90;;;;;;4990428;28;20041;-77
2023/06/01 05:57:45;;;;;;;24.27;13.00;;;12.90;99.90;;;;;;5000920;28;20060;-77
2023/06/01 06:00:13;;;;;;;24.15;13.98;;;12.90;99.90;;;;;;5005519;28;20088;-76
2023/06/01 06:02:39;;;;;;;20.45;13.45;;;13.00;99.90;;;;;;4988261;28;20045;-78
2023/06/01 06:05:05;;;;;;;20.65;13.95;;;13.10;99.90;;;;;;5022111;28;20026;-77
2023/06/01 06:07:31;;;;;;;20.88;13.57;;;13.10;99.90;;;;;;5004929;28;20069;-77
2023/06/01 06:09:57;;;;;;;21.02;13.32;;;13.10;99.90;;;;;;5006237;28;20053;-78
2023/06/01 06:12:22;;;;;;;17.88;11.38;;;13.20;99.90;;;;;;4989165;28;20080;-77
2023/06/01 06:14:48;;;;;;;20.05;11.65;;;13.30;99.90;;;;;;5007591;28;20030;-77
2023/06/01 06:17:14;;;;;;;15.18;10.98;;;13.30;99.90;;;;;;5021174;28;20668;-77
2023/06/01 06:19:43;;;;;;;15.68;10.63;;;13.50;99.90;;;;;;5003879;28;20036;-77
2023/06/01 06:22:08;;;;;;;20.33;11.35;;;13.60;99.90;;;;;;5001324;28;20398;-77
2023/06/01 06:24:34;;;;;;;16.38;10.52;;;13.70;99.90;;;;;;5002166;28;20029;-78
2023/06/01 06:27:00;;;;;;;17.17;11.35;;;13.80;99.90;;;;;;5001620;28;20032;-77
2023/06/01 06:29:26;;;;;;;17.83;11.05;;;13.90;99.90;;;;;;4991303;28;20033;-77
2023/06/01 06:31:51;;;;;;;24.45;12.70;;;14.00;99.90;;;;;;5006116;28;20493;-77
2023/06/01 06:34:17;;;;;;;18.88;12.02;;;14.20;99.90;;;;;;5016998;28;20049;-78
2023/06/01 06:36:43;;;;;;;17.85;10.32;;;14.30;99.70;;;;;;4989749;28;20100;-77
2023/06/01 06:39:09;;;;;;;17.40;11.15;;;14.40;99.50;;;;;;5003907;28;20464;-79
2023/06/01 06:41:34;;;;;;;20.10;11.88;;;14.50;99.20;;;;;;4986238;28;20045;-77
2023/06/01 06:44:00;;;;;;;16.25;9.80;;;14.60;99.30;;;;;;4987978;28;20037;-76
2023/06/01 06:46:25;;;;;;;16.55;9.90;;;14.70;98.70;;;;;;5004624;28;20029;-76
2023/06/01 06:48:51;;;;;;;17.02;10.77;;;14.80;98.60;;;;;;5022637;28;20444;-76
2023/06/01 06:51:16;;;;;;;13.90;9.38;;;15.00;98.50;;;;;;5005037;28;20123;-77
2023/06/01 06:53:42;;;;;;;19.30;10.70;;;15.20;98.20;;;;;;5021708;28;20044;-77
2023/06/01 06:56:07;;;;;;;13.73;9.80;;;15.40;98.00;;;;;;5003828;28;20079;-77
2023/06/01 06:58:33;;;;;;;14.57;9.30;;;15.50;97.80;;;;;;5022465;28;20497;-77
2023/06/01 07:00:59;;;;;;;13.88;9.73;;;15.70;97.50;;;;;;5006798;28;20030;-77
2023/06/01 07:03:26;;;;;;;15.10;11.10;;;15.90;97.30;;;;;;5011373;28;20119;-79
2023/06/01 07:05:51;;;;;;;20.15;9.90;;;16.10;97.30;;;;;;4989013;28;20082;-79
2023/06/01 07:08:17;;;;;;;19.77;9.35;;;16.30;96.80;;;;;;5006144;28;20041;-80
2023/06/01 07:10:42;;;;;;;13.27;9.98;;;16.30;96.30;;;;;;5021384;28;20305;-78
2023/06/01 07:13:08;;;;;;;14.35;9.15;;;16.60;96.40;;;;;;5021861;28;20116;-80
2023/06/01 07:15:33;;;;;;;15.20;9.85;;;16.70;95.90;;;;;;5019964;28;20386;-81
2023/06/01 07:17:59;;;;;;;17.70;9.35;;;17.00;95.30;;;;;;5002361;28;20080;-80
2023/06/01 07:20:25;;;;;;;13.75;9.38;;;17.20;95.10;;;;;;5006979;28;20029;-81
2023/06/01 07:22:50;;;;;;;19.50;8.73;;;17.20;95.00;;;;;;5001374;28;20061;-80
2023/06/01 07:25:16;;;;;;;15.73;9.98;;;17.50;94.30;;;;;;5020364;28;20090;-80
2023/06/01 07:27:43;;;;;;;16.20;10.68;;;17.70;93.60;;;;;;5005142;28;20041;-80
2023/06/01 07:30:09;;;;;;;16.88;9.65;;;17.80;92.30;;;;;;4988016;28;20489;-79
2023/06/01 07:32:34;;;;;;;16.98;8.00;;;17.80;91.80;;;;;;4986019;28;20508;-80
2023/06/01 07:35:01;;;;;;;12.38;9.23;;;17.80;91.80;;;;;;4988491;28;20038;-79
2023/06/01 07:37:27;;;;;;;14.77;10.02;;;18.00;91.20;;;;;;5003235;28;20559;-78
2023/06/01 07:39:55;;;;;;;13.90;8.85;;;17.90;90.90;;;;;;5005549;28;20037;-79
2023/06/01 07:42:21;;;;;;;13.65;10.30;;;17.90;90.70;;;;;;5006208;28;20036;-79
2023/06/01 07:44:47;;;;;;;15.50;9.15;;;18.10;90.40;;;;;;4988360;28;20037;-79
2023/06/01 07:47:12;;;;;;;13.77;9.23;;;18.20;89.80;;;;;;5022436;28;20057;-79
2023/06/01 07:49:38;;;;;;;16.13;9.60;;;18.40;89.20;;;;;;5023201;28;20037;-79
2023/06/01 07:52:07;;;;;;;15.50;9.40;;;18.60;88.90;;;;;;5005827;28;20029;-79
2023/06/01 07:54:33;;;;;;;16.48;10.45;;;18.90;89.20;;;;;;5005966;28;20045;-80
2023/06/01 07:56:58;;;;;;;13.02;9.40;;;19.30;87.40;;;;;;5003839;28;20547;-79
2023/06/01 07:59:24;;;;;;;15.43;9.75;;;19.40;87.40;;;;;;5002793;28;20029;-79
2023/06/01 08:01:51;;;;;;;15.40;9.55;;;19.60;85.20;;;;;;5018461;28;20404;-79
2023/06/01 08:04:20;;;;;;;13.77;8.00;;;19.80;84.50;;;;;;5018110;28;20030;-79
2023/06/01 08:06:46;;;;;;;18.60;10.25;;;19.90;84.60;;;;;;4993570;28;20026;-79
2023/06/01 08:09:12;;;;;;;19.50;9.55;;;20.10;82.80;;;;;;5002413;28;20072;-79
2023/06/01 08:11:37;;;;;;;22.27;9.80;;;20.10;81.60;;;;;;5002162;28;20498;-79
2023/06/01 08:14:04;;;;;;;14.80;9.13;;;20.10;80.30;;;;;;4985681;28;20493;-79
2023/06/01 08:16:30;;;;;;;12.07;7.93;;;20.20;81.20;;;;;;5001672;28;20057;-79
2023/06/01 08:18:56;;;;;;;15.40;9.15;;;20.40;81.00;;;;;;5021960;28;20551;-79
2023/06/01 08:21:23;;;;;;;21.60;9.70;;;20.80;79.00;;;;;;5003006;28;20033;-77
2023/06/01 08:23:51;;;;;;;12.85;8.82;;;21.00;79.90;;;;;;5021914;28;20038;-78
2023/06/01 08:26:18;;;;;;;17.80;10.32;;;21.30;80.10;;;;;;5017611;28;20030;-78
2023/06/01 08:28:51;;;;;;;14.88;10.07;;;21.60;76.60;;;;;;5004164;28;20435;-78
2023/06/01 08:31:20;;;;;;;13.88;9.30;;;21.80;75.60;;;;;;5022094;28;20042;-78
2023/06/01 08:33:46;;;;;;;18.85;9.32;;;21.90;77.60;;;;;;5018251;28;20056;-78
2023/06/01 08:36:12;;;;;;;14.02;8.18;;;22.30;76.20;;;;;;4986621;28;20378;-78
2023/06/01 08:38:37;;;;;;;16.25;10.13;;;22.40;76.10;;;;;;4988051;28;20046;-77
2023/06/01 08:41:07;;;;;;;15.07;8.60;;;22.60;74.60;;;;;;5003481;28;20452;-78
2023/06/01 08:43:33;;;;;;;19.90;10.73;;;22.80;72.30;;;;;;5018328;28;20026;-77
2023/06/01 08:46:00;;;;;;;12.93;8.88;;;23.00;70.50;;;;;;4987583;28;20572;-77
2023/06/01 08:48:26;;;;;;;18.52;9.38;;;23.10;72.10;;;;;;5003093;28;20556;-77
2023/06/01 08:50:53;;;;;;;14.43;10.15;;;23.20;70.00;;;;;;5019196;28;20036;-77
2023/06/01 08:53:21;;;;;;;12.50;9.13;;;23.40;69.80;;;;;;5009033;28;20034;-77
2023/06/01 08:55:55;;;;;;;12.98;7.50;;;23.60;68.20;;;;;;4985660;28;20050;-77
2023/06/01 08:58:21;;;;;;;10.98;9.52;;;23.60;67.70;;;;;;4994867;28;20685;-78
2023/06/01 09:00:48;;;;;;;14.80;9.18;;;23.60;67.70;;;;;;4998944;28;20041;-78
2023/06/01 09:03:13;;;;;;;13.15;10.27;;;23.60;69.30;;;;;;4986666;28;20041;-77
2023/06/01 09:05:40;;;;;;;19.55;10.10;;;23.80;67.80;;;;;;5005559;28;20551;-78
2023/06/01 09:08:06;;;;;;;15.00;9.88;;;24.20;67.20;;;;;;4990954;28;20037;-78
2023/06/01 09:10:31;;;;;;;18.85;10.52;;;24.20;65.70;;;;;;5005801;28;20090;-78
2023/06/01 09:12:57;;;;;;;15.23;10.95;;;24.30;65.20;;;;;;5006062;28;20094;-78
2023/06/01 09:15:25;;;;;;;15.75;9.77;;;24.60;62.80;;;;;;5002348;28;20072;-78
2023/06/01 09:17:51;;;;;;;13.45;9.15;;;24.60;62.90;;;;;;5018775;28;20413;-77
2023/06/01 09:20:27;;;;;;;16.33;10.27;;;24.90;63.10;;;;;;5005055;28;20409;-77
2023/06/01 09:22:52;;;;;;;11.50;7.75;;;24.80;63.20;;;;;;5004739;28;20040;-76
2023/06/01 09:25:29;;;;;;;14.35;9.63;;;24.70;63.80;;;;;;5007539;28;20038;-76
2023/06/01 09:27:56;;;;;;;16.30;10.18;;;24.70;64.10;;;;;;5020715;28;20137;-78
2023/06/01 09:30:26;;;;;;;22.92;10.77;;;25.00;64.10;;;;;;4991630;28;20036;-76
2023/06/01 09:33:16;;;;;;;17.80;11.40;;;25.10;62.60;;;;;;4991486;28;20128;-76
2023/06/01 09:35:43;;;;;;;16.73;11.18;;;25.10;63.10;;;;;;5007239;28;20489;-79
2023/06/01 09:38:09;;;;;;;12.02;8.10;;;25.60;60.30;;;;;;5001019;28;20064;-78
2023/06/01 09:40:36;;;;;;;16.20;11.68;;;25.50;61.50;;;;;;4988457;28;20496;-79
2023/06/01 09:43:02;;;;;;;17.55;11.40;;;25.50;62.10;;;;;;4987017;28;20072;-79
2023/06/01 09:45:30;;;;;;;14.15;11.85;;;25.70;60.10;;;;;;5023112;28;20494;-79
2023/06/01 09:48:15;;;;;;;17.05;10.55;;;25.80;59.40;;;;;;5000705;28;20485;-79
2023/06/01 09:50:42;;;;;;;14.10;10.55;;;25.90;59.90;;;;;;5021362;28;20497;-80
2023/06/01 09:53:08;;;;;;;13.60;10.38;;;26.00;60.10;;;;;;4990362;28;20036;-79
2023/06/01 09:55:33;;;;;;;17.52;12.88;;;26.10;59.50;;;;;;5023533;28;20045;-79
2023/06/01 09:58:21;;;;;;;19.52;12.70;;;26.20;59.00;;;;;;5020762;28;20514;-80
2023/06/01 10:00:48;;;;;;;17.10;13.18;;;26.40;57.60;;;;;;5021549;28;20037;-80
2023/06/01 10:03:17;;;;;;;16.13;13.20;;;26.60;57.40;;;;;;5011320;28;20064;-78
2023/06/01 10:05:44;;;;;;;20.38;13.48;;;26.70;57.50;;;;;;5026003;28;20125;-81
2023/06/01 10:08:13;;;;;;;20.55;15.13;;;26.70;57.70;;;;;;5011104;28;20129;-80
2023/06/01 10:10:46;;;;;;;20.27;15.57;;;26.80;58.40;;;;;;5003370;28;20075;-79
2023/06/01 10:13:12;;;;;;;21.13;15.77;;;26.90;56.90;;;;;;4995723;28;20065;-79
2023/06/01 10:15:38;;;;;;;22.08;15.15;;;27.10;56.30;;;;;;5007895;28;20083;-79
2023/06/01 10:18:06;;;;;;;17.27;13.93;;;27.10;57.30;;;;;;4996708;28;20047;-80
2023/06/01 10:20:35;;;;;;;20.95;15.70;;;27.30;56.30;;;;;;5011042;28;20487;-80
2023/06/01 10:23:02;;;;;;;23.27;15.77;;;27.30;57.30;;;;;;5012388;28;20061;-80
2023/06/01 10:25:49;;;;;;;24.80;18.85;;;27.50;57.00;;;;;;4994154;28;20452;-80
2023/06/01 10:28:15;;;;;;;24.30;17.05;;;27.70;55.60;;;;;;5025821;28;20037;-80
2023/06/01 10:30:40;;;;;;;15.52;10.63;;;27.80;55.80;;;;;;5008539;28;20401;-80
2023/06/01 10:33:07;;;;;;;25.60;15.63;;;27.80;56.70;;;;;;4996316;28;20112;-80
2023/06/01 10:35:42;;;;;;;22.05;16.20;;;28.00;56.10;;;;;;4998393;28;20097;-81
2023/06/01 10:38:09;;;;;;;20.80;13.95;;;28.20;53.90;;;;;;5047301;28;20060;-80
2023/06/01 10:40:36;;;;;;;20.00;14.35;;;28.20;54.40;;;;;;5026059;28;20099;-81
2023/06/01 10:43:02;;;;;;;21.05;13.80;;;28.10;55.40;;;;;;4997008;28;20057;-80
2023/06/01 10:45:34;;;;;;;15.73;12.68;;;28.10;54.30;;;;;;4997566;28;20029;-81
2023/06/01 10:48:03;;;;;;;20.75;14.27;;;28.30;54.70;;;;;;5032900;28;20041;-80
2023/06/01 10:50:29;;;;;;;18.23;11.88;;;28.40;53.50;;;;;;5012703;28;20113;-79
2023/06/01 10:52:55;;;;;;;21.38;12.50;;;28.50;54.00;;;;;;4993782;28;20617;-80
2023/06/01 10:55:21;;;;;;;18.08;12.55;;;28.60;53.30;;;;;;5011388;28;20065;-79
2023/06/01 10:57:47;;;;;;;17.00;12.13;;;28.50;52.60;;;;;;5012633;28;20425;-80
2023/06/01 11:00:16;;;;;;;15.35;11.82;;;28.80;51.20;;;;;;5023767;28;20047;-80
2023/06/01 11:02:48;;;;;;;15.73;12.32;;;28.80;52.10;;;;;;5016041;28;20498;-79
2023/06/01 11:05:48;;;;;;;13.90;10.57;;;29.00;50.00;;;;;;5016975;28;20037;-81
2023/06/01 11:08:22;;;;;;;16.95;11.45;;;28.90;51.10;;;;;;5006548;28;20497;-80
2023/06/01 11:10:54;;;;;;;15.60;11.98;;;28.90;51.50;;;;;;5025689;28;20036;-82
2023/06/01 11:13:25;;;;;;;17.58;12.25;;;29.00;51.90;;;;;;5041675;28;20537;-81
2023/06/01 11:16:21;;;;;;;16.50;10.90;;;29.00;50.40;;;;;;5007612;28;20082;-80
2023/06/01 11:18:59;;;;;;;9.77;7.00;;;29.10;50.20;;;;;;5019832;28;20095;-82
2023/06/01 11:21:33;;;;;;;19.20;12.57;;;29.00;51.80;;;;;;5005807;28;20068;-81
2023/06/01 11:23:59;;;;;;;14.05;11.57;;;29.20;49.70;;;;;;5008861;28;20029;-81
2023/06/01 11:26:34;;;;;;;14.73;10.13;;;29.10;49.40;;;;;;4993671;28;20124;-81
2023/06/01 11:29:06;;;;;;;17.58;10.88;;;29.20;49.50;;;;;;5021503;28;20044;-81
2023/06/01 11:31:38;;;;;;;15.77;10.73;;;29.10;50.40;;;;;;5000461;28;20030;-81
2023/06/01 11:34:04;;;;;;;21.40;13.20;;;28.90;50.80;;;;;;5039232;28;20033;-81
2023/06/01 11:36:30;;;;;;;15.25;10.85;;;29.10;51.10;;;;;;5007107;28;20098;-81
2023/06/01 11:38:56;;;;;;;17.40;10.60;;;29.30;50.00;;;;;;5019967;28;20048;-80
2023/06/01 11:41:23;;;;;;;15.30;12.00;;;29.30;51.10;;;;;;5022376;28;20049;-80
2023/06/01 11:43:55;;;;;;;14.50;11.05;;;29.50;50.50;;;;;;5008657;28;20026;-81
2023/06/01 11:46:21;;;;;;;21.30;10.48;;;29.50;50.50;;;;;;5006316;28;20087;-81
2023/06/01 11:49:01;;;;;;;12.43;9.90;;;29.60;50.50;;;;;;5019840;28;20124;-82
2023/06/01 11:51:37;;;;;;;16.40;10.27;;;29.60;49.90;;;;;;5004866;28;20033;-82
2023/06/01 11:54:03;;;;;;;;;;;29.80;49.40;;;;;;4990996;28;20038;-82
2023/06/01 11:56:33;;;;;;;14.23;7.78;;;29.60;49.20;;;;;;5009842;28;19917;-81
2023/06/01 11:59:08;;;;;;;17.58;9.68;;;29.80;50.70;;;;;;5010520;28;20029;-80
2023/06/01 12:01:34;;;;;;;15.25;10.20;;;30.00;49.30;;;;;;5009687;28;20889;-81
2023/06/01 12:04:01;;;;;;;13.15;9.32;;;29.90;50.30;;;;;;4997969;28;20033;-80
2023/06/01 12:06:27;;;;;;;17.70;10.18;;;30.00;50.10;;;;;;5027721;28;20401;-80
2023/06/01 12:08:54;;;;;;;19.65;9.23;;;29.90;50.10;;;;;;5027902;28;20034;-81
2023/06/01 12:11:26;;;;;;;14.80;8.52;;;30.10;50.30;;;;;;5031675;28;20033;-81
2023/06/01 12:13:55;;;;;;;15.07;9.48;;;30.20;50.00;;;;;;5030593;28;20034;-81
2023/06/01 12:16:22;;;;;;;12.32;8.82;;;30.20;50.00;;;;;;4998477;28;20456;-80
2023/06/01 12:18:47;;;;;;;12.88;8.32;;;30.30;49.40;;;;;;5029449;28;20040;-80
2023/06/01 12:21:13;;;;;;;13.75;7.45;;;30.10;49.30;;;;;;5020261;28;20033;-80
2023/06/01 12:23:39;;;;;;;16.85;9.35;;;30.20;49.60;;;;;;5013570;28;20025;-81
2023/06/01 12:26:06;;;;;;;15.43;7.53;;;30.20;48.80;;;;;;5008685;28;20042;-81
2023/06/01 12:28:55;;;;;;;13.43;7.72;;;30.20;49.80;;;;;;5012303;28;20037;-80
2023/06/01 12:31:21;;;;;;;18.35;9.00;;;30.20;49.90;;;;;;5009331;28;20053;-81
2023/06/01 12:33:48;;;;;;;13.18;8.18;;;30.30;49.10;;;;;;5004719;28;20571;-80